Aérodrome :
LOGIN :

S'inscrire | Disclaimer

   EN    FR    IT 

 










Légende :    VFR   VFR Marginal   IFR   IFR Intensif   IFR Très Intensif
Visi : 
Plafond : 
>= 8 km
>= 3000ft
5 à 8 km
1000 à 3000 ft
1500m à 5 km
500 à 1000 ft
800 à 1500m
200 à 500 ft
< 800m
< 200 ft
Symboles :   Orages  Brouillard  Fortes neiges  Fortes précipitations  Vent > 20 kt
SIGMETs :   Divers  Orages  Givrage  Turbulence  Onde Orograph.  Cendres Volcan.






- Altitude de l'aérodrome : 358 ft


EGTC - Cranfield

DERNIER METAR :
  • 261420Z 19012KT 9999 VCSH FEW044CB 16/11 Q1010

METARs EXPIRÉS :
  • 261350Z 20015KT 9999 VCSH SCT041CB 19/10 Q1009
  • 261320Z 22016KT 9999 FEW041TCU 19/10 Q1009
  • 261250Z 22014KT 9999 FEW033TCU 19/11 Q1009
  • 261220Z 18007KT 120V220 9999 FEW030CB 18/12 Q1010
  • 261150Z 22013KT 9999 -SHRA FEW020 SCT030CB 17/12 Q1010
  • 261120Z 20010KT 160V220 9999 VCSH FEW022 SCT029 18/12 Q1010
  • 261050Z 19008KT 140V230 9999 FEW017 SCT021 18/12 Q1010
  • 261020Z 19007KT 150V220 9999 FEW012 SCT017 16/13 Q1010
  • 260950Z 20008KT 9999 VCSH SCT009 15/13 Q1010 RESHRA

TAF TAF EGTC
Valide du 26 à 15h jusqu'au 26 à 17h UTC


261356Z 2615/2617 20013KT 9999 SCT025
TEMPO 2615/2617 6000 SHRA BKN010
PROB30
TEMPO 2615/2617 24016G28KT 3000 +TSRAGS BKN020CB



MET'MAP, la Météo Aéronautique d'un coup d'oeil ! - Copyright ORBIFLY Décembre 2007 - Disclaimer

ORBIFLY MET'MAP TEAM :

Programmation & Développement : Alexandra Zaïnal
Sur une idée originale de : Baudouin d'Aumeries
Soutien technique & logistique : Manuel Goepfert
Assistance : Marc-Olivier Méhu




SOURCES & CREDITS :

   NOAA